Bergen/Flesland

Airport
ICAO code: 
ENBR
Summary
ICAO Region: 
EUR
Territory: 
Location: 
Bergen,
Elevation: 
170 ft
Coordinates: 
Aerial View: 
60° 17' 36.239" N, 5° 13' 5.304" E
Airport BS: 
Non Avian Wildlife Hazards to Aircraft
Airport WX: 
Low Level Turbulence
Metar
Observation
ENBR 241120Z 33010KT 3000 -RADZ BR VV006 06/05 Q1022 TEMPO 6000 -RADZ RMK WIND 1200FT 32019G30KT
Station
Bergen / Flesland
Date/Time
2022-01-24 11:20:00
Wind direction
330°
Wind speed
10 kts
Lowest cloud amount
n/a
Temperature
6°C
Dew point
5°C
Humidity
93%
QNH
1022 hPa
Weather condition
n/a

Description

International airport 8 nm south west of Bergen.

Climatology

Temperate Marine climate/Oceanic climate (Köppen climate classification Cfb). Moderately cool summer and comparatively warm winter with a temperature range of only 14°C. Prevailing south-westerly winds from the Atlantic Ocean. Despite its latitude, Bergen is one of the warmest cities in Norway because of the influence of the Atlantic Gulf Stream current.

Runways

Designator Length Width Surface Rops
17/35 2990 45 ASP Yes/Yes
Airport map: 
Aerial View: 

Accidents and Serious Incidents at or in the vicinity of ENBR

SKYbrary Partners:

Safety knowledge contributed by: